createdAt,value
2018-07-17T00:00:00.076Z,44.80
2018-07-17T00:02:28.378Z,44.20
2018-07-17T00:04:57.413Z,44.10
2018-07-17T00:07:26.140Z,44.90
2018-07-17T00:09:54.518Z,46.00
2018-07-17T00:12:22.735Z,45.90
2018-07-17T00:14:51.026Z,45.70
2018-07-17T00:17:19.434Z,46.50
2018-07-17T00:19:47.987Z,47.10
2018-07-17T00:22:17.947Z,46.80
2018-07-17T00:24:46.559Z,46.40
2018-07-17T00:27:14.926Z,46.10
2018-07-17T00:29:43.369Z,45.90
2018-07-17T00:32:11.594Z,45.70
2018-07-17T00:34:40.106Z,45.70
2018-07-17T00:37:08.570Z,46.60
2018-07-17T00:39:36.957Z,47.40
2018-07-17T00:42:05.235Z,47.50
2018-07-17T00:44:33.715Z,47.50
2018-07-17T00:47:02.358Z,47.90
2018-07-17T00:49:30.726Z,47.90
2018-07-17T00:51:58.996Z,47.30
2018-07-17T00:54:27.430Z,47.40
2018-07-17T00:56:55.809Z,46.30
2018-07-17T00:59:24.831Z,46.20
2018-07-17T01:01:58.499Z,45.50
2018-07-17T01:04:32.420Z,46.10
2018-07-17T01:07:06.118Z,47.10
2018-07-17T01:09:39.946Z,46.50
2018-07-17T01:12:13.738Z,45.90
2018-07-17T01:15:12.838Z,45.50
2018-07-17T01:17:41.333Z,45.40
2018-07-17T01:22:37.959Z,46.80
2018-07-17T01:25:06.568Z,47.40
2018-07-17T01:27:34.960Z,48.10
2018-07-17T01:30:03.415Z,47.90
2018-07-17T01:32:32.018Z,47.90
2018-07-17T01:35:00.262Z,48.20
2018-07-17T01:37:28.654Z,47.90
2018-07-17T01:39:56.947Z,48.20
2018-07-17T01:42:25.471Z,48.20
2018-07-17T01:44:53.783Z,48.50
2018-07-17T01:47:22.169Z,48.00
2018-07-17T01:49:50.447Z,46.70
2018-07-17T01:52:18.726Z,45.50
2018-07-17T01:54:48.025Z,45.20
2018-07-17T01:57:16.306Z,45.30
2018-07-17T01:59:44.564Z,45.40
2018-07-17T02:02:12.927Z,45.80
2018-07-17T02:04:42.212Z,45.60
2018-07-17T02:07:10.533Z,46.40
2018-07-17T02:09:39.205Z,47.00
2018-07-17T02:12:07.485Z,47.40
2018-07-17T02:14:35.746Z,48.10
2018-07-17T02:17:04.363Z,47.80
2018-07-17T02:19:32.721Z,47.80
2018-07-17T02:22:01.198Z,48.00
2018-07-17T02:24:29.454Z,48.40
2018-07-17T02:26:57.733Z,48.20
2018-07-17T02:29:26.183Z,48.10
2018-07-17T02:31:54.597Z,48.40
2018-07-17T02:34:22.888Z,47.90
2018-07-17T02:36:51.142Z,47.80
2018-07-17T02:39:19.438Z,47.70
2018-07-17T02:41:47.792Z,49.20
2018-07-17T02:44:16.182Z,49.00
2018-07-17T02:46:44.408Z,48.40
2018-07-17T02:49:12.688Z,48.40
2018-07-17T02:51:41.153Z,48.60
2018-07-17T02:54:09.686Z,48.90
2018-07-17T02:56:37.964Z,48.30
2018-07-17T02:59:06.480Z,47.80
2018-07-17T03:01:34.725Z,47.30
2018-07-17T03:04:03.078Z,47.10
2018-07-17T03:06:31.782Z,47.40
2018-07-17T03:09:00.032Z,47.10
2018-07-17T03:11:28.286Z,47.60
2018-07-17T03:13:57.231Z,47.30
2018-07-17T03:16:25.700Z,48.20
2018-07-17T03:18:54.107Z,47.40
2018-07-17T03:21:22.328Z,47.00
2018-07-17T03:23:50.585Z,47.50
2018-07-17T03:26:18.998Z,48.50
2018-07-17T03:28:47.326Z,49.20
2018-07-17T03:34:08.958Z,49.80
2018-07-17T03:36:37.416Z,50.60
2018-07-17T03:39:07.071Z,50.70
2018-07-17T03:41:35.453Z,49.50
2018-07-17T03:44:04.051Z,49.00
2018-07-17T03:46:32.401Z,48.20
2018-07-17T03:49:00.784Z,48.70
2018-07-17T03:51:29.084Z,48.40
2018-07-17T03:53:57.440Z,47.40
2018-07-17T03:56:26.160Z,46.80
2018-07-17T03:58:54.968Z,46.70
2018-07-17T04:01:23.471Z,46.60
2018-07-17T04:03:51.920Z,46.50
2018-07-17T04:06:20.285Z,46.50
2018-07-17T04:08:49.578Z,45.90
2018-07-17T04:13:46.134Z,45.50
2018-07-17T04:16:14.522Z,45.30
2018-07-17T04:18:42.802Z,45.10
2018-07-17T04:23:39.463Z,45.20
2018-07-17T04:26:07.907Z,46.00
2018-07-17T04:28:36.559Z,45.90
2018-07-17T04:31:04.858Z,46.20
2018-07-17T04:33:33.202Z,45.40
2018-07-17T04:36:01.464Z,45.20
2018-07-17T04:38:29.901Z,45.20
2018-07-17T04:40:58.144Z,45.30
2018-07-17T04:43:27.411Z,45.10
2018-07-17T04:45:55.775Z,44.70
2018-07-17T04:48:24.715Z,44.70
2018-07-17T04:50:52.993Z,44.70
2018-07-17T04:53:21.342Z,44.40
2018-07-17T04:55:49.620Z,44.30
2018-07-17T04:58:18.150Z,45.00
2018-07-17T05:00:46.392Z,44.80
2018-07-17T05:03:14.671Z,45.20
2018-07-17T05:05:42.925Z,45.70
2018-07-17T05:08:12.351Z,44.80
2018-07-17T05:10:41.404Z,44.10
2018-07-17T05:13:09.703Z,43.70
2018-07-17T05:15:38.439Z,43.60
2018-07-17T05:18:06.935Z,43.40
2018-07-17T05:20:35.398Z,43.40
2018-07-17T05:23:05.268Z,43.00
2018-07-17T05:25:33.973Z,42.80
2018-07-17T05:28:03.331Z,42.80
2018-07-17T05:30:31.801Z,43.00
2018-07-17T05:33:00.424Z,44.00
2018-07-17T05:35:28.829Z,44.60
2018-07-17T05:37:57.518Z,44.70
2018-07-17T05:40:26.198Z,43.60
2018-07-17T05:42:55.238Z,42.90
2018-07-17T05:45:23.838Z,42.90
2018-07-17T05:47:52.646Z,42.80
2018-07-17T05:50:21.366Z,42.60
2018-07-17T05:52:50.176Z,42.10
2018-07-17T05:55:19.423Z,42.50
2018-07-17T05:57:47.906Z,41.90
2018-07-17T06:00:16.338Z,41.90
2018-07-17T06:02:44.603Z,41.70
2018-07-17T06:05:12.904Z,41.50
2018-07-17T06:07:41.378Z,41.90
2018-07-17T06:10:09.774Z,41.60
2018-07-17T06:12:38.073Z,41.30
2018-07-17T06:15:06.707Z,41.40
2018-07-17T06:17:35.027Z,41.20
2018-07-17T06:20:03.324Z,41.00
2018-07-17T06:22:32.917Z,40.70
2018-07-17T06:25:02.271Z,40.60
2018-07-17T06:27:30.475Z,40.50
2018-07-17T06:29:58.782Z,40.70
2018-07-17T06:32:27.522Z,40.30
2018-07-17T06:34:55.898Z,40.40
2018-07-17T06:37:24.895Z,40.50
2018-07-17T06:39:53.190Z,40.30
2018-07-17T06:42:21.471Z,40.10
2018-07-17T06:44:49.954Z,39.70
2018-07-17T06:47:19.444Z,40.00
2018-07-17T06:49:48.074Z,40.10
2018-07-17T06:52:16.400Z,40.00
2018-07-17T06:54:44.828Z,39.60
2018-07-17T06:57:13.224Z,39.70
2018-07-17T06:59:41.718Z,39.10
2018-07-17T07:02:10.256Z,39.10
2018-07-17T07:04:38.857Z,39.10
2018-07-17T07:07:07.280Z,38.60
2018-07-17T07:09:35.737Z,38.30
2018-07-17T07:12:04.227Z,38.20
2018-07-17T07:14:33.521Z,37.60
2018-07-17T07:17:02.767Z,37.20
2018-07-17T07:19:31.871Z,37.30
2018-07-17T07:22:00.268Z,37.40
2018-07-17T07:24:28.494Z,37.30
2018-07-17T07:26:56.819Z,37.70
2018-07-17T07:29:25.402Z,37.50
2018-07-17T07:31:53.782Z,36.40
2018-07-17T07:34:22.094Z,36.50
2018-07-17T07:36:50.321Z,35.00
2018-07-17T07:39:18.611Z,34.80
2018-07-17T07:41:47.521Z,34.20
2018-07-17T07:44:15.854Z,34.00
2018-07-17T07:46:44.152Z,33.50
2018-07-17T07:49:12.457Z,31.80
2018-07-17T07:54:09.407Z,31.00
2018-07-17T07:59:05.782Z,29.00
2018-07-17T08:01:34.016Z,27.60
2018-07-17T08:04:02.436Z,26.50
2018-07-17T08:06:30.656Z,25.70
2018-07-17T08:08:58.918Z,24.30
2018-07-17T08:11:27.293Z,22.50
2018-07-17T08:13:57.051Z,22.60
2018-07-17T08:16:25.483Z,21.00
2018-07-17T08:18:53.762Z,20.60
2018-07-17T08:21:21.981Z,20.00
2018-07-17T08:23:50.367Z,19.90
2018-07-17T08:26:18.776Z,19.20
2018-07-17T08:28:47.342Z,18.90
2018-07-17T08:31:15.622Z,17.40
2018-07-17T08:33:43.934Z,16.60
2018-07-17T08:36:12.157Z,16.80
2018-07-17T08:38:41.316Z,16.10
2018-07-17T08:41:10.502Z,16.40
2018-07-17T08:43:38.910Z,16.20
2018-07-17T08:46:07.226Z,16.20
2018-07-17T08:48:35.609Z,16.40
2018-07-17T08:51:03.965Z,16.80
2018-07-17T08:53:32.404Z,16.30
2018-07-17T08:56:00.693Z,16.10
2018-07-17T08:58:28.932Z,16.00
2018-07-17T09:00:57.207Z,16.20
2018-07-17T09:03:25.546Z,15.50
2018-07-17T09:05:54.069Z,15.40
2018-07-17T09:08:22.274Z,14.80
2018-07-17T09:10:50.702Z,14.80
2018-07-17T09:13:19.779Z,15.00
2018-07-17T09:15:48.091Z,15.20
2018-07-17T09:18:17.315Z,14.70
2018-07-17T09:20:45.535Z,14.60
2018-07-17T09:23:13.841Z,14.70
2018-07-17T09:25:41.996Z,14.10
2018-07-17T09:28:11.037Z,13.90
2018-07-17T09:30:44.402Z,13.80
2018-07-17T09:33:12.610Z,14.00
2018-07-17T09:35:41.551Z,14.00
2018-07-17T09:38:09.896Z,14.20
2018-07-17T09:40:38.286Z,14.00
2018-07-17T09:43:06.660Z,13.80
2018-07-17T09:45:34.890Z,13.90
2018-07-17T09:48:03.713Z,13.60
2018-07-17T09:50:31.966Z,13.00
2018-07-17T09:53:00.222Z,13.00
2018-07-17T09:55:28.459Z,12.90
2018-07-17T09:57:57.595Z,13.40
2018-07-17T10:03:16.602Z,12.30
2018-07-17T10:05:44.728Z,13.00
2018-07-17T10:08:12.942Z,13.90
2018-07-17T10:10:41.790Z,14.20
2018-07-17T10:13:10.645Z,13.70
2018-07-17T10:15:39.027Z,14.00
2018-07-17T10:18:07.226Z,13.60
2018-07-17T10:20:35.480Z,13.70
2018-07-17T10:23:04.198Z,14.10
2018-07-17T10:25:32.430Z,12.80
2018-07-17T10:28:00.752Z,13.60
2018-07-17T10:30:28.979Z,14.30
2018-07-17T10:32:57.181Z,13.80
2018-07-17T10:35:26.382Z,13.90
2018-07-17T10:37:54.742Z,14.00
2018-07-17T10:40:23.081Z,14.20
2018-07-17T10:42:51.453Z,14.10
2018-07-17T10:45:19.690Z,15.10
2018-07-17T10:47:48.881Z,15.20
2018-07-17T10:50:18.070Z,15.80
2018-07-17T10:52:46.291Z,16.40
2018-07-17T10:55:14.508Z,17.00
2018-07-17T10:57:42.737Z,18.10
2018-07-17T11:00:11.017Z,19.20
2018-07-17T11:02:39.206Z,20.50
2018-07-17T11:05:07.434Z,19.90
2018-07-17T11:07:35.748Z,18.50
2018-07-17T11:10:04.512Z,16.80
2018-07-17T11:12:32.833Z,15.50
2018-07-17T11:15:01.164Z,14.50
2018-07-17T11:17:29.366Z,14.70
2018-07-17T11:19:57.577Z,13.90
2018-07-17T11:22:26.539Z,14.10
2018-07-17T11:24:55.528Z,13.20
2018-07-17T11:27:23.769Z,13.30
2018-07-17T11:29:52.049Z,13.40
2018-07-17T11:32:20.417Z,13.20
2018-07-17T11:34:48.735Z,13.80
2018-07-17T11:37:17.606Z,14.90
2018-07-17T11:39:47.389Z,15.40
2018-07-17T11:42:15.615Z,15.60
2018-07-17T11:44:43.850Z,14.30
2018-07-17T11:47:13.574Z,13.90
2018-07-17T11:49:42.499Z,13.10
2018-07-17T11:52:11.278Z,12.90
2018-07-17T11:54:39.594Z,13.40
2018-07-17T11:57:07.870Z,12.90
2018-07-17T11:59:36.194Z,12.70
2018-07-17T12:02:05.384Z,11.90
2018-07-17T12:04:33.659Z,11.70
2018-07-17T12:07:01.945Z,11.90
2018-07-17T12:09:30.148Z,11.90
2018-07-17T12:11:58.382Z,12.00
2018-07-17T12:14:26.838Z,12.00
2018-07-17T12:16:55.137Z,12.50
2018-07-17T12:19:23.356Z,13.50
2018-07-17T12:21:51.562Z,13.90
2018-07-17T12:24:19.775Z,13.70
2018-07-17T12:26:48.253Z,13.30
2018-07-17T12:29:16.541Z,12.50
2018-07-17T12:31:44.767Z,11.60
2018-07-17T12:34:12.959Z,11.30
2018-07-17T12:36:41.270Z,11.00
2018-07-17T12:39:10.862Z,11.50
2018-07-17T12:41:39.463Z,11.00
2018-07-17T12:44:07.679Z,11.50
2018-07-17T12:46:35.985Z,11.10
2018-07-17T12:49:04.351Z,11.00
2018-07-17T12:51:33.221Z,11.20
2018-07-17T12:54:02.462Z,11.30
2018-07-17T12:56:30.658Z,11.40
2018-07-17T12:58:58.858Z,11.80
2018-07-17T13:01:27.078Z,12.60
2018-07-17T13:03:55.849Z,13.40
2018-07-17T13:06:24.320Z,13.60
2018-07-17T13:08:52.498Z,14.60
2018-07-17T13:11:20.714Z,14.80
2018-07-17T13:13:49.030Z,15.40
2018-07-17T13:16:17.439Z,16.10
2018-07-17T13:18:45.652Z,16.60
2018-07-17T13:21:13.899Z,15.80
2018-07-17T13:23:42.112Z,15.20
2018-07-17T13:26:11.022Z,14.70
2018-07-17T13:28:39.280Z,14.60
2018-07-17T13:31:07.507Z,15.20
2018-07-17T13:33:35.716Z,15.90
2018-07-17T13:36:04.118Z,16.40
2018-07-17T13:38:32.457Z,16.20
2018-07-17T13:41:00.774Z,15.90
2018-07-17T13:43:28.972Z,15.80
2018-07-17T13:45:57.842Z,16.00
2018-07-17T13:48:26.097Z,14.90
2018-07-17T13:50:54.385Z,15.60
2018-07-17T13:53:22.616Z,14.60
2018-07-17T13:55:50.829Z,14.00
2018-07-17T13:58:19.559Z,13.20
2018-07-17T14:00:47.897Z,13.30
2018-07-17T14:03:16.170Z,14.60
2018-07-17T14:05:44.425Z,14.90
2018-07-17T14:10:41.448Z,16.10
2018-07-17T14:13:09.913Z,15.50
2018-07-17T14:15:38.102Z,15.50
2018-07-17T14:18:06.362Z,14.80
2018-07-17T14:20:34.588Z,14.00
2018-07-17T14:23:02.821Z,13.40
2018-07-17T14:25:31.032Z,13.30
2018-07-17T14:27:59.274Z,13.40
2018-07-17T14:30:27.529Z,13.80
2018-07-17T14:32:55.897Z,13.80
2018-07-17T14:35:24.856Z,12.90
2018-07-17T14:37:53.113Z,11.60
2018-07-17T14:40:23.105Z,12.50
2018-07-17T14:42:51.327Z,12.10
2018-07-17T14:45:19.540Z,12.20
2018-07-17T14:47:47.858Z,12.00
2018-07-17T14:50:16.060Z,11.90
2018-07-17T14:52:44.271Z,12.10
2018-07-17T14:55:12.858Z,12.10
2018-07-17T14:57:41.793Z,11.70
2018-07-17T15:00:10.590Z,12.00
2018-07-17T15:02:38.741Z,12.20
2018-07-17T15:05:07.595Z,12.30
2018-07-17T15:07:35.863Z,12.30
2018-07-17T15:12:33.091Z,13.10
2018-07-17T15:15:01.302Z,12.60
2018-07-17T15:17:29.938Z,12.60
2018-07-17T15:19:58.149Z,12.00
2018-07-17T15:22:26.545Z,12.70
2018-07-17T15:24:55.170Z,12.70
2018-07-17T15:27:23.545Z,12.30
2018-07-17T15:29:51.882Z,12.30
2018-07-17T15:32:20.367Z,13.00
2018-07-17T15:34:49.408Z,14.20
2018-07-17T15:37:17.969Z,15.50
2018-07-17T15:39:46.215Z,16.20
2018-07-17T15:42:14.549Z,16.40
2018-07-17T15:44:42.777Z,16.50
2018-07-17T15:47:11.270Z,15.90
2018-07-17T15:49:39.522Z,15.20
2018-07-17T15:52:07.735Z,15.10
2018-07-17T15:54:36.043Z,14.70
2018-07-17T15:57:04.858Z,15.20
2018-07-17T15:59:33.110Z,15.50
2018-07-17T16:02:01.335Z,15.30
2018-07-17T16:04:29.629Z,15.90
2018-07-17T16:06:57.990Z,16.70
2018-07-17T16:09:26.333Z,17.40
2018-07-17T16:11:54.648Z,17.80
2018-07-17T16:14:23.234Z,18.10
2018-07-17T16:16:51.218Z,18.50
2018-07-17T16:19:19.547Z,19.20
2018-07-17T16:21:47.817Z,18.90
2018-07-17T16:24:16.048Z,19.60
2018-07-17T16:26:44.365Z,19.50
2018-07-17T16:29:12.638Z,20.20
2018-07-17T16:31:40.995Z,19.90
2018-07-17T16:34:09.297Z,20.30
2018-07-17T16:36:37.502Z,20.80
2018-07-17T16:39:06.836Z,21.00
2018-07-17T16:41:35.137Z,21.30
2018-07-17T16:44:03.521Z,21.30
2018-07-17T16:46:31.916Z,21.00
2018-07-17T16:49:00.243Z,20.50
2018-07-17T16:51:28.562Z,21.30
2018-07-17T16:53:57.959Z,20.60
2018-07-17T16:56:26.834Z,21.10
2018-07-17T16:58:55.186Z,21.00
2018-07-17T17:01:23.794Z,21.00
2018-07-17T17:03:51.970Z,21.10
2018-07-17T17:06:20.178Z,21.30
2018-07-17T17:08:49.483Z,21.70
2018-07-17T17:11:18.121Z,21.70
2018-07-17T17:13:46.715Z,22.10
2018-07-17T17:16:15.006Z,22.10
2018-07-17T17:18:43.245Z,22.60
2018-07-17T17:23:40.230Z,22.30
2018-07-17T17:26:08.425Z,22.40
2018-07-17T17:28:36.641Z,22.80
2018-07-17T17:31:04.908Z,23.30
2018-07-17T17:33:33.277Z,23.90
2018-07-17T17:36:01.515Z,24.40
2018-07-17T17:38:29.720Z,24.80
2018-07-17T17:40:57.957Z,25.10
2018-07-17T17:43:26.310Z,25.10
2018-07-17T17:45:54.701Z,25.20
2018-07-17T17:48:22.934Z,25.70
2018-07-17T17:50:51.171Z,25.60
2018-07-17T17:53:19.385Z,25.60
2018-07-17T17:55:47.729Z,25.50
2018-07-17T17:58:15.986Z,26.00
2018-07-17T18:00:44.254Z,25.60
2018-07-17T18:03:12.571Z,25.70
2018-07-17T18:05:40.981Z,25.70
2018-07-17T18:08:09.189Z,25.90
2018-07-17T18:10:37.637Z,26.10
2018-07-17T18:13:05.920Z,26.70
2018-07-17T18:15:34.761Z,26.40
2018-07-17T18:18:04.258Z,27.00
2018-07-17T18:20:32.591Z,26.50
2018-07-17T18:23:01.045Z,26.40
2018-07-17T18:25:29.361Z,26.40
2018-07-17T18:27:57.837Z,27.10
2018-07-17T18:30:26.926Z,26.50
2018-07-17T18:37:51.590Z,26.80
2018-07-17T18:40:19.789Z,26.80
2018-07-17T18:42:48.042Z,26.90
2018-07-17T18:45:16.277Z,26.80
2018-07-17T18:47:44.690Z,27.10
2018-07-17T18:50:13.297Z,26.70
2018-07-17T18:52:41.287Z,26.70
2018-07-17T18:55:09.555Z,26.70
2018-07-17T18:57:37.778Z,26.80
2018-07-17T19:00:06.716Z,27.00
2018-07-17T19:05:03.197Z,27.00
2018-07-17T19:07:31.451Z,27.00
2018-07-17T19:09:59.653Z,26.90
2018-07-17T19:12:27.963Z,27.20
2018-07-17T19:14:56.390Z,27.10
2018-07-17T19:17:24.629Z,27.10
2018-07-17T19:19:52.877Z,27.30
2018-07-17T19:22:21.098Z,27.60
2018-07-17T19:24:49.965Z,27.80
2018-07-17T19:27:18.272Z,27.90
2018-07-17T19:32:15.749Z,27.70
2018-07-17T19:34:43.982Z,27.80
2018-07-17T19:37:12.360Z,27.90
2018-07-17T19:39:41.122Z,28.00
2018-07-17T19:42:09.500Z,28.10
2018-07-17T19:44:37.761Z,28.20
2018-07-17T19:47:06.151Z,28.40
2018-07-17T19:49:34.500Z,29.00
2018-07-17T19:52:02.917Z,28.80
2018-07-17T19:54:31.263Z,28.90
2018-07-17T19:56:59.506Z,28.90
2018-07-17T19:59:27.779Z,29.30
2018-07-17T20:01:57.046Z,29.40
2018-07-17T20:04:25.612Z,29.20
2018-07-17T20:06:53.875Z,29.20
2018-07-17T20:09:22.081Z,29.40
2018-07-17T20:11:50.476Z,29.20
2018-07-17T20:14:18.845Z,29.40
2018-07-17T20:16:47.126Z,29.80
2018-07-17T20:19:16.389Z,29.80
2018-07-17T20:21:45.629Z,29.80
2018-07-17T20:24:13.876Z,30.10
2018-07-17T20:26:42.349Z,30.00
2018-07-17T20:29:11.263Z,30.00
2018-07-17T20:31:39.572Z,30.00
2018-07-17T20:34:07.817Z,30.00
2018-07-17T20:36:36.092Z,30.20
2018-07-17T20:39:06.791Z,30.50
2018-07-17T20:41:34.995Z,30.60
2018-07-17T20:44:03.353Z,30.80
2018-07-17T20:46:31.805Z,30.70
2018-07-17T20:49:00.042Z,31.00
2018-07-17T20:51:28.338Z,31.50
2018-07-17T20:53:56.871Z,30.80
2018-07-17T20:56:26.598Z,31.00
2018-07-17T20:58:55.601Z,31.10
2018-07-17T21:01:23.821Z,31.40
2018-07-17T21:03:52.110Z,31.50
2018-07-17T21:06:20.337Z,31.50
2018-07-17T21:08:48.782Z,31.40
2018-07-17T21:11:17.216Z,31.50
2018-07-17T21:13:45.436Z,31.60
2018-07-17T21:16:13.682Z,31.60
2018-07-17T21:18:42.061Z,32.40
2018-07-17T21:21:10.352Z,31.60
2018-07-17T21:23:38.609Z,31.50
2018-07-17T21:26:06.889Z,31.60
2018-07-17T21:28:35.111Z,31.50
2018-07-17T21:31:03.537Z,32.10
2018-07-17T21:33:31.785Z,31.80
2018-07-17T21:36:00.109Z,31.60
2018-07-17T21:38:28.320Z,31.60
2018-07-17T21:43:24.846Z,32.10
2018-07-17T21:45:53.014Z,31.80
2018-07-17T21:48:21.237Z,32.20
2018-07-17T21:50:50.435Z,33.00
2018-07-17T21:53:18.697Z,33.00
2018-07-17T21:55:46.925Z,32.70
2018-07-17T21:58:15.171Z,33.50
2018-07-17T22:00:43.369Z,33.40
2018-07-17T22:03:12.269Z,33.70
2018-07-17T22:05:40.620Z,33.30
2018-07-17T22:08:08.905Z,32.90
2018-07-17T22:10:37.206Z,32.40
2018-07-17T22:13:05.457Z,32.70
2018-07-17T22:15:34.165Z,32.60
2018-07-17T22:18:02.382Z,32.90
2018-07-17T22:20:30.589Z,32.90
2018-07-17T22:22:58.793Z,33.50
2018-07-17T22:25:27.078Z,33.00
2018-07-17T22:27:55.436Z,32.90
2018-07-17T22:30:23.672Z,32.50
2018-07-17T22:32:51.881Z,32.40
2018-07-17T22:35:20.149Z,32.60
2018-07-17T22:37:48.938Z,32.40
2018-07-17T22:40:17.205Z,32.40
2018-07-17T22:42:45.401Z,32.50
2018-07-17T22:45:13.657Z,32.40
2018-07-17T22:47:41.972Z,32.40
2018-07-17T22:50:11.152Z,32.70
2018-07-17T22:52:40.374Z,33.00
2018-07-17T22:55:08.602Z,33.00
2018-07-17T22:57:37.826Z,32.70
2018-07-17T23:00:06.938Z,32.80
2018-07-17T23:02:35.169Z,32.40
2018-07-17T23:05:03.791Z,32.30
2018-07-17T23:07:32.269Z,32.30
2018-07-17T23:10:00.547Z,32.60
2018-07-17T23:12:29.161Z,32.30
2018-07-17T23:14:57.505Z,33.00
2018-07-17T23:17:26.464Z,32.30
2018-07-17T23:19:55.388Z,32.30
2018-07-17T23:22:40.550Z,32.00
2018-07-17T23:25:08.802Z,32.00
2018-07-17T23:27:37.841Z,32.30
2018-07-17T23:30:06.138Z,32.60
2018-07-17T23:32:34.673Z,32.00
2018-07-17T23:35:03.032Z,32.10
2018-07-17T23:37:31.234Z,31.90
2018-07-17T23:39:59.673Z,31.60
2018-07-17T23:42:28.018Z,31.70
2018-07-17T23:44:56.450Z,31.60
2018-07-17T23:47:24.926Z,31.50
2018-07-17T23:49:53.146Z,31.70
2018-07-17T23:52:21.373Z,31.90
2018-07-17T23:54:50.307Z,31.80
2018-07-17T23:57:18.746Z,31.90
2018-07-17T23:59:46.966Z,32.50
